KHIO/HIO METAR and TAF weather

Enter ICAO airport designator
Station Type Date Time Source
KHIO METAR 2022/08/12 14:53 UTC NOAA

KHIO 121453Z 27003KT 10SM CLR 15/13 A3007 RMK AO2 SLP178 T01500128 52011


Station Type Date Time Source
KHIO Decoded METAR 2022/08/12 14:53 UTC NOAA

PORTLAND-HILLSBORO AIRPORT, OR, United States (KHIO) 45-33N 122-57W 68M
Aug 12, 2022 - 10:53 AM EDT / 2022.08.12 1453 UTC
Wind: from the W (270 degrees) at 3 MPH (3 KT):0
Visibility: 10 mile(s):0
Sky conditions: clear
Temperature: 59.0 F (15.0 C)
Dew Point: 55.0 F (12.8 C)
Relative Humidity: 86%
Pressure (altimeter): 30.07 in. Hg (1018 hPa)
Pressure tendency: 0.03 inches (1.1 hPa) higher than three hours ago
ob: KHIO 121453Z 27003KT 10SM CLR 15/13 A3007 RMK AO2 SLP178 T01500128 52011
cycle: 15

Station Type Date Time Source
KHIO TAF 2022/08/12 12:34 UTC NOAA

TAF KHIO 121132Z 1212/1312 00000KT P6SM SKC
FM121500 VRB04KT P6SM SCT025
FM130100 29010KT P6SM SKC
FM130600 00000KT P6SM SKC

Example: see airport list